createdAt,value
2023-02-17T00:01:27.205Z,6.85
2023-02-17T00:03:54.300Z,7.10
2023-02-17T00:06:28.391Z,6.20
2023-02-17T00:08:54.979Z,5.50
2023-02-17T00:11:21.840Z,5.95
2023-02-17T00:13:48.394Z,5.68
2023-02-17T00:16:20.454Z,4.93
2023-02-17T00:18:48.531Z,5.15
2023-02-17T00:21:17.798Z,4.90
2023-02-17T00:23:45.630Z,5.95
2023-02-17T00:26:12.849Z,5.35
2023-02-17T00:28:50.154Z,4.53
2023-02-17T00:31:22.626Z,5.00
2023-02-17T00:33:49.281Z,5.07
2023-02-17T00:36:19.172Z,5.53
2023-02-17T00:38:47.987Z,5.13
2023-02-17T00:41:15.057Z,4.82
2023-02-17T00:43:41.603Z,5.55
2023-02-17T00:53:42.765Z,4.97
2023-02-17T00:56:11.186Z,5.15
2023-02-17T00:58:38.875Z,5.03
2023-02-17T01:01:05.890Z,4.72
2023-02-17T01:03:33.080Z,5.20
2023-02-17T01:06:00.022Z,5.10
2023-02-17T01:08:26.750Z,5.35
2023-02-17T01:10:53.438Z,4.80
2023-02-17T01:13:20.315Z,4.72
2023-02-17T01:15:50.154Z,5.68
2023-02-17T01:18:18.977Z,5.28
2023-02-17T01:20:45.902Z,4.90
2023-02-17T01:23:13.216Z,4.88
2023-02-17T01:25:41.888Z,5.10
2023-02-17T01:28:11.241Z,5.20
2023-02-17T01:33:04.152Z,5.03
2023-02-17T01:35:30.668Z,4.97
2023-02-17T01:37:57.173Z,4.75
2023-02-17T01:40:23.885Z,4.93
2023-02-17T01:42:50.470Z,5.55
2023-02-17T01:45:19.465Z,4.95
2023-02-17T01:48:24.316Z,5.20
2023-02-17T01:51:01.742Z,5.47
2023-02-17T01:53:36.916Z,5.10
2023-02-17T01:56:05.951Z,3.90
2023-02-17T01:58:33.603Z,5.20
2023-02-17T02:01:03.554Z,4.85
2023-02-17T02:03:34.680Z,5.30
2023-02-17T02:06:04.122Z,5.63
2023-02-17T02:08:41.487Z,4.72
2023-02-17T02:11:08.017Z,4.93
2023-02-17T02:13:34.590Z,4.22
2023-02-17T02:16:11.182Z,4.30
2023-02-17T02:18:51.954Z,4.13
2023-02-17T02:21:45.885Z,5.07
2023-02-17T02:24:28.187Z,4.28
2023-02-17T02:27:06.734Z,4.50
2023-02-17T02:30:00.664Z,5.05
2023-02-17T02:32:47.281Z,4.35
2023-02-17T02:35:21.058Z,4.93
2023-02-17T02:37:53.558Z,4.30
2023-02-17T02:40:24.313Z,4.80
2023-02-17T02:42:51.117Z,4.43
2023-02-17T02:45:19.345Z,4.78
2023-02-17T02:47:45.894Z,3.45
2023-02-17T02:50:16.859Z,4.38
2023-02-17T02:52:50.589Z,4.78
2023-02-17T02:55:38.022Z,4.25
2023-02-17T02:58:47.592Z,4.68
2023-02-17T03:01:14.614Z,3.88
2023-02-17T03:04:07.575Z,4.25
2023-02-17T03:06:49.833Z,4.82
2023-02-17T03:09:27.488Z,4.43
2023-02-17T03:11:56.463Z,4.20
2023-02-17T03:14:23.967Z,3.95
2023-02-17T03:16:52.342Z,5.40
2023-02-17T03:19:22.210Z,4.20
2023-02-17T03:21:52.734Z,3.50
2023-02-17T03:24:19.817Z,4.50
2023-02-17T03:26:46.304Z,4.72
2023-02-17T03:29:12.995Z,4.35
2023-02-17T03:31:40.584Z,4.15
2023-02-17T03:34:07.999Z,4.57
2023-02-17T03:36:34.562Z,4.30
2023-02-17T03:39:01.087Z,4.43
2023-02-17T03:41:27.634Z,4.30
2023-02-17T03:43:54.362Z,3.60
2023-02-17T03:46:21.193Z,4.30
2023-02-17T03:48:47.956Z,4.47
2023-02-17T03:51:17.820Z,4.50
2023-02-17T03:53:45.433Z,3.85
2023-02-17T03:56:13.865Z,4.22
2023-02-17T03:58:41.531Z,4.22
2023-02-17T04:01:10.378Z,4.53
2023-02-17T04:03:40.752Z,4.32
2023-02-17T04:06:08.712Z,4.70
2023-02-17T04:08:35.578Z,4.45
2023-02-17T04:11:03.419Z,4.40
2023-02-17T04:13:30.281Z,3.65
2023-02-17T04:15:57.042Z,4.43
2023-02-17T04:18:23.866Z,3.33
2023-02-17T04:20:51.422Z,4.53
2023-02-17T04:23:18.905Z,4.13
2023-02-17T04:25:46.538Z,4.30
2023-02-17T04:28:14.625Z,4.20
2023-02-17T04:30:44.292Z,4.68
2023-02-17T04:33:11.138Z,4.10
2023-02-17T04:35:37.827Z,3.63
2023-02-17T04:38:04.968Z,4.25
2023-02-17T04:40:31.557Z,4.18
2023-02-17T04:42:58.129Z,3.55
2023-02-17T04:45:24.710Z,4.30
2023-02-17T04:47:51.618Z,3.28
2023-02-17T04:50:20.671Z,4.00
2023-02-17T04:52:47.744Z,3.92
2023-02-17T04:55:14.257Z,2.78
2023-02-17T04:57:40.821Z,3.42
2023-02-17T05:00:08.226Z,3.97
2023-02-17T05:02:34.798Z,2.90
2023-02-17T05:05:01.394Z,3.80
2023-02-17T05:07:27.998Z,3.92
2023-02-17T05:09:54.566Z,3.95
2023-02-17T05:12:21.266Z,4.28
2023-02-17T05:14:47.825Z,4.35
2023-02-17T05:17:14.341Z,4.55
2023-02-17T05:19:40.892Z,4.43
2023-02-17T05:22:07.494Z,3.90
2023-02-17T05:24:34.052Z,4.68
2023-02-17T05:27:00.549Z,4.55
2023-02-17T05:29:27.079Z,3.50
2023-02-17T05:31:54.000Z,4.40
2023-02-17T05:34:20.583Z,4.63
2023-02-17T05:36:47.205Z,4.60
2023-02-17T05:39:13.795Z,3.53
2023-02-17T05:41:40.264Z,3.60
2023-02-17T05:44:06.796Z,3.83
2023-02-17T05:46:33.435Z,3.92
2023-02-17T05:48:59.952Z,3.85
2023-02-17T05:51:26.496Z,3.78
2023-02-17T05:53:53.036Z,4.10
2023-02-17T05:56:19.716Z,3.88
2023-02-17T05:58:46.260Z,3.92
2023-02-17T06:01:13.154Z,3.85
2023-02-17T06:03:39.675Z,3.67
2023-02-17T06:06:07.524Z,4.25
2023-02-17T06:08:35.619Z,3.58
2023-02-17T06:11:02.264Z,4.30
2023-02-17T06:13:28.843Z,4.55
2023-02-17T06:15:55.519Z,4.05
2023-02-17T06:18:22.182Z,4.80
2023-02-17T06:20:48.732Z,4.75
2023-02-17T06:23:15.295Z,4.32
2023-02-17T06:25:42.670Z,4.32
2023-02-17T06:28:09.330Z,3.50
2023-02-17T06:30:35.801Z,4.25
2023-02-17T06:33:02.406Z,4.40
2023-02-17T06:35:28.944Z,3.80
2023-02-17T06:37:56.611Z,3.58
2023-02-17T06:40:23.600Z,3.33
2023-02-17T06:42:50.250Z,2.55
2023-02-17T06:45:16.998Z,3.97
2023-02-17T06:47:43.567Z,3.25
2023-02-17T06:50:11.079Z,3.50
2023-02-17T06:52:37.731Z,3.67
2023-02-17T06:55:04.547Z,3.42
2023-02-17T06:57:31.076Z,3.20
2023-02-17T06:59:57.599Z,4.20
2023-02-17T07:02:24.313Z,3.45
2023-02-17T07:04:50.998Z,3.38
2023-02-17T07:07:19.017Z,3.58
2023-02-17T07:09:45.538Z,3.65
2023-02-17T07:12:12.149Z,3.22
2023-02-17T07:14:38.690Z,4.10
2023-02-17T07:17:05.298Z,3.63
2023-02-17T07:19:32.028Z,3.15
2023-02-17T07:22:00.999Z,3.85
2023-02-17T07:24:29.392Z,2.45
2023-02-17T07:26:56.281Z,3.88
2023-02-17T07:29:23.432Z,3.80
2023-02-17T07:31:50.004Z,4.15
2023-02-17T07:34:16.559Z,4.30
2023-02-17T07:36:46.379Z,4.57
2023-02-17T07:39:19.083Z,3.95
2023-02-17T07:41:45.569Z,4.35
2023-02-17T07:44:12.178Z,4.03
2023-02-17T07:46:39.831Z,3.22
2023-02-17T07:49:06.676Z,3.38
2023-02-17T07:51:33.294Z,4.07
2023-02-17T07:54:01.717Z,3.63
2023-02-17T07:56:30.091Z,3.72
2023-02-17T07:58:56.894Z,3.15
2023-02-17T08:01:24.910Z,3.63
2023-02-17T08:03:51.988Z,3.15
2023-02-17T08:06:24.097Z,2.97
2023-02-17T08:09:13.862Z,2.53
2023-02-17T08:12:00.540Z,3.25
2023-02-17T08:14:30.037Z,2.95
2023-02-17T08:16:57.362Z,3.88
2023-02-17T08:19:27.182Z,3.90
2023-02-17T08:21:56.715Z,3.95
2023-02-17T08:24:24.682Z,3.47
2023-02-17T08:26:52.026Z,2.60
2023-02-17T08:29:20.284Z,3.20
2023-02-17T08:31:47.735Z,3.92
2023-02-17T08:34:14.774Z,3.22
2023-02-17T08:36:41.720Z,3.20
2023-02-17T08:39:12.999Z,3.45
2023-02-17T08:41:43.713Z,3.20
2023-02-17T08:44:13.970Z,3.38
2023-02-17T08:46:41.164Z,3.25
2023-02-17T08:49:09.015Z,3.38
2023-02-17T08:51:36.502Z,3.30
2023-02-17T08:54:06.339Z,3.13
2023-02-17T08:56:34.171Z,3.55
2023-02-17T08:59:01.557Z,2.58
2023-02-17T09:01:28.354Z,3.17
2023-02-17T09:03:57.286Z,3.28
2023-02-17T09:06:27.064Z,3.25
2023-02-17T09:08:53.616Z,2.55
2023-02-17T09:11:20.899Z,2.63
2023-02-17T09:13:48.633Z,2.90
2023-02-17T09:16:15.499Z,3.50
2023-02-17T09:18:42.169Z,3.30
2023-02-17T09:21:12.241Z,3.65
2023-02-17T09:23:40.172Z,3.28
2023-02-17T09:26:10.091Z,3.03
2023-02-17T09:28:40.048Z,3.08
2023-02-17T09:31:19.590Z,2.63
2023-02-17T09:33:48.129Z,3.58
2023-02-17T09:36:23.674Z,3.50
2023-02-17T09:38:51.072Z,2.65
2023-02-17T09:41:34.836Z,2.00
2023-02-17T09:44:02.266Z,3.75
2023-02-17T09:46:56.056Z,3.80
2023-02-17T09:49:45.634Z,2.83
2023-02-17T09:52:18.030Z,3.40
2023-02-17T09:54:56.781Z,2.67
2023-02-17T09:57:28.516Z,3.42
2023-02-17T10:00:02.957Z,3.75
2023-02-17T10:02:52.700Z,3.53
2023-02-17T10:05:24.361Z,3.35
2023-02-17T10:07:58.318Z,3.67
2023-02-17T10:10:34.293Z,3.28
2023-02-17T10:13:04.445Z,3.38
2023-02-17T10:15:38.925Z,3.20
2023-02-17T10:18:15.923Z,3.30
2023-02-17T10:20:49.500Z,2.72
2023-02-17T10:23:22.555Z,2.47
2023-02-17T10:26:20.720Z,3.03
2023-02-17T10:28:52.359Z,2.88
2023-02-17T10:31:41.720Z,2.72
2023-02-17T10:34:23.375Z,2.90
2023-02-17T10:36:59.254Z,2.30
2023-02-17T10:39:35.112Z,2.88
2023-02-17T10:42:03.144Z,2.83
2023-02-17T10:44:34.384Z,3.17
2023-02-17T10:47:00.921Z,3.05
2023-02-17T10:49:31.419Z,2.35
2023-02-17T10:52:13.830Z,3.15
2023-02-17T10:54:50.965Z,2.20
2023-02-17T10:57:26.899Z,1.90
2023-02-17T10:59:53.900Z,2.85
2023-02-17T11:02:35.344Z,2.40
2023-02-17T11:05:02.091Z,2.63
2023-02-17T11:07:39.300Z,2.47
2023-02-17T11:10:29.190Z,2.95
2023-02-17T11:12:58.319Z,2.75
2023-02-17T11:15:44.748Z,2.60
2023-02-17T11:18:26.481Z,2.70
2023-02-17T11:21:04.800Z,2.33
2023-02-17T11:23:31.675Z,2.45
2023-02-17T11:26:23.079Z,3.17
2023-02-17T11:28:49.757Z,2.35
2023-02-17T11:31:31.814Z,2.95
2023-02-17T11:33:58.531Z,2.50
2023-02-17T11:36:34.573Z,2.10
2023-02-17T11:39:17.682Z,2.22
2023-02-17T11:41:44.569Z,2.55
2023-02-17T11:44:12.635Z,2.28
2023-02-17T11:46:47.016Z,2.50
2023-02-17T11:49:34.515Z,2.28
2023-02-17T11:52:04.054Z,1.95
2023-02-17T11:54:36.427Z,2.45
2023-02-17T11:57:19.017Z,2.22
2023-02-17T12:00:05.285Z,2.10
2023-02-17T12:02:34.495Z,2.42
2023-02-17T12:05:24.066Z,1.77
2023-02-17T12:08:04.810Z,2.33
2023-02-17T12:10:49.703Z,2.30
2023-02-17T12:13:50.115Z,2.00
2023-02-17T12:16:57.417Z,1.30
2023-02-17T12:19:26.941Z,2.08
2023-02-17T12:22:28.991Z,2.13
2023-02-17T12:25:27.080Z,1.52
2023-02-17T12:28:28.763Z,1.90
2023-02-17T12:31:02.633Z,1.98
2023-02-17T12:34:00.188Z,1.73
2023-02-17T12:36:37.333Z,1.80
2023-02-17T12:39:12.870Z,2.03
2023-02-17T12:41:45.646Z,1.77
2023-02-17T12:44:26.366Z,2.10
2023-02-17T12:46:59.969Z,1.48
2023-02-17T12:49:49.089Z,1.80
2023-02-17T12:52:26.324Z,2.47
2023-02-17T12:54:57.996Z,1.50
2023-02-17T12:58:01.334Z,2.05
2023-02-17T13:00:34.341Z,1.75
2023-02-17T13:03:03.046Z,2.28
2023-02-17T13:05:33.417Z,2.00
2023-02-17T13:08:10.152Z,1.95
2023-02-17T13:10:39.934Z,1.85
2023-02-17T13:13:12.420Z,2.20
2023-02-17T13:15:42.972Z,2.00
2023-02-17T13:18:37.424Z,1.92
2023-02-17T13:21:26.387Z,1.70
2023-02-17T13:24:01.462Z,1.88
2023-02-17T13:29:22.269Z,2.33
2023-02-17T13:31:55.285Z,1.88
2023-02-17T13:34:33.176Z,1.80
2023-02-17T13:37:03.462Z,1.75
2023-02-17T13:39:32.821Z,1.90
2023-02-17T13:42:01.157Z,1.77
2023-02-17T13:44:38.594Z,2.00
2023-02-17T13:47:19.973Z,1.73
2023-02-17T13:49:55.400Z,1.90
2023-02-17T13:52:25.229Z,1.80
2023-02-17T13:55:18.999Z,1.55
2023-02-17T13:57:45.701Z,1.80
2023-02-17T14:00:18.304Z,1.70
2023-02-17T14:02:48.851Z,1.52
2023-02-17T14:05:27.928Z,1.20
2023-02-17T14:08:06.297Z,1.50
2023-02-17T14:10:33.497Z,1.20
2023-02-17T14:13:00.837Z,1.40
2023-02-17T14:15:28.688Z,1.92
2023-02-17T14:17:55.940Z,1.38
2023-02-17T14:20:25.587Z,1.20
2023-02-17T14:23:12.987Z,0.95
2023-02-17T14:28:22.857Z,1.05
2023-02-17T14:30:50.202Z,1.55
2023-02-17T14:33:17.238Z,1.63
2023-02-17T14:35:57.163Z,1.58
2023-02-17T14:38:25.399Z,1.50
2023-02-17T14:40:58.981Z,1.85
2023-02-17T14:43:25.482Z,2.83
2023-02-17T14:45:52.094Z,1.40
2023-02-17T14:48:21.198Z,1.50
2023-02-17T14:50:48.395Z,1.67
2023-02-17T14:53:26.583Z,1.90
2023-02-17T14:56:21.489Z,1.15
2023-02-17T14:58:48.495Z,1.92
2023-02-17T15:01:17.821Z,1.50
2023-02-17T15:03:44.548Z,1.20
2023-02-17T15:06:15.444Z,1.65
2023-02-17T15:08:43.943Z,1.75
2023-02-17T15:11:19.937Z,1.65
2023-02-17T15:13:46.901Z,1.27
2023-02-17T15:16:13.890Z,1.40
2023-02-17T15:18:41.050Z,1.30
2023-02-17T15:21:21.457Z,1.30
2023-02-17T15:23:48.100Z,1.60
2023-02-17T15:26:14.610Z,1.98
2023-02-17T15:28:41.093Z,2.00
2023-02-17T15:31:11.194Z,1.58
2023-02-17T15:33:38.212Z,1.90
2023-02-17T15:36:05.625Z,2.00
2023-02-17T15:38:32.364Z,1.80
2023-02-17T15:40:58.954Z,1.90
2023-02-17T15:46:01.506Z,2.25
2023-02-17T15:48:33.451Z,1.90
2023-02-17T15:51:00.201Z,2.38
2023-02-17T15:53:29.090Z,1.98
2023-02-17T15:55:55.565Z,2.22
2023-02-17T15:58:23.357Z,1.80
2023-02-17T16:00:51.183Z,2.00
2023-02-17T16:03:18.463Z,1.58
2023-02-17T16:05:45.147Z,2.10
2023-02-17T16:08:11.873Z,2.13
2023-02-17T16:10:41.533Z,2.00
2023-02-17T16:13:14.761Z,2.10
2023-02-17T16:15:42.474Z,2.15
2023-02-17T16:18:20.334Z,1.75
2023-02-17T16:20:47.282Z,2.13
2023-02-17T16:23:13.880Z,2.05
2023-02-17T16:25:43.701Z,1.50
2023-02-17T16:28:19.581Z,1.60
2023-02-17T16:30:46.756Z,1.77
2023-02-17T16:33:13.972Z,2.30
2023-02-17T16:35:42.514Z,1.95
2023-02-17T16:38:17.256Z,1.85
2023-02-17T16:40:47.921Z,2.35
2023-02-17T16:43:16.854Z,2.38
2023-02-17T16:46:03.417Z,1.85
2023-02-17T16:48:32.447Z,1.25
2023-02-17T16:53:25.909Z,2.75
2023-02-17T16:55:53.996Z,2.40
2023-02-17T16:58:25.310Z,2.17
2023-02-17T17:00:54.149Z,2.70
2023-02-17T17:03:22.620Z,2.90
2023-02-17T17:05:53.652Z,2.55
2023-02-17T17:08:21.934Z,2.53
2023-02-17T17:10:49.417Z,2.80
2023-02-17T17:13:16.252Z,2.95
2023-02-17T17:15:45.279Z,2.75
2023-02-17T17:18:21.012Z,2.50
2023-02-17T17:20:47.902Z,2.85
2023-02-17T17:23:15.054Z,2.25
2023-02-17T17:25:45.671Z,3.00
2023-02-17T17:28:17.599Z,3.35
2023-02-17T17:30:44.609Z,2.53
2023-02-17T17:33:11.314Z,3.17
2023-02-17T17:35:38.322Z,3.00
2023-02-17T17:38:05.537Z,3.30
2023-02-17T17:40:48.520Z,2.55
2023-02-17T17:43:16.633Z,3.53
2023-02-17T17:45:43.433Z,2.40
2023-02-17T17:48:13.801Z,3.88
2023-02-17T17:50:41.054Z,2.67
2023-02-17T17:53:07.860Z,2.88
2023-02-17T17:55:36.782Z,2.00
2023-02-17T17:58:03.450Z,2.92
2023-02-17T18:00:30.054Z,3.13
2023-02-17T18:02:56.570Z,3.25
2023-02-17T18:05:23.235Z,2.75
2023-02-17T18:07:51.113Z,3.15
2023-02-17T18:10:17.943Z,2.20
2023-02-17T18:12:47.407Z,2.78
2023-02-17T18:15:15.914Z,3.00
2023-02-17T18:17:43.217Z,3.10
2023-02-17T18:20:11.814Z,2.80
2023-02-17T18:22:38.795Z,2.97
2023-02-17T18:25:06.055Z,3.45
2023-02-17T18:27:46.573Z,3.50
2023-02-17T18:30:26.584Z,2.95
2023-02-17T18:32:54.179Z,2.15
2023-02-17T18:35:21.489Z,3.35
2023-02-17T18:37:48.335Z,3.03
2023-02-17T18:40:18.008Z,3.30
2023-02-17T18:42:48.460Z,2.83
2023-02-17T18:45:16.189Z,2.70
2023-02-17T18:47:43.446Z,3.00
2023-02-17T18:50:11.652Z,3.38
2023-02-17T18:52:39.949Z,3.30
2023-02-17T18:55:07.226Z,3.53
2023-02-17T18:57:34.322Z,3.10
2023-02-17T19:00:00.941Z,3.60
2023-02-17T19:02:27.547Z,4.03
2023-02-17T19:04:54.637Z,2.63
2023-02-17T19:07:21.967Z,3.75
2023-02-17T19:09:51.745Z,3.85
2023-02-17T19:12:18.611Z,3.75
2023-02-17T19:14:45.379Z,3.60
2023-02-17T19:17:12.524Z,2.85
2023-02-17T19:19:41.109Z,3.28
2023-02-17T19:22:09.456Z,4.10
2023-02-17T19:24:37.407Z,3.95
2023-02-17T19:27:04.300Z,4.03
2023-02-17T19:29:30.962Z,3.75
2023-02-17T19:31:58.878Z,3.70
2023-02-17T19:34:25.917Z,3.63
2023-02-17T19:36:53.326Z,3.65
2023-02-17T19:39:20.167Z,3.45
2023-02-17T19:41:46.823Z,3.80
2023-02-17T19:44:14.048Z,2.78
2023-02-17T19:46:40.905Z,3.90
2023-02-17T19:49:07.672Z,3.15
2023-02-17T19:51:34.999Z,3.85
2023-02-17T19:54:02.370Z,2.70
2023-02-17T19:56:31.745Z,4.50
2023-02-17T19:58:59.393Z,4.03
2023-02-17T20:01:31.737Z,3.90
2023-02-17T20:04:01.425Z,3.95
2023-02-17T20:06:30.745Z,3.75
2023-02-17T20:09:01.176Z,4.40
2023-02-17T20:11:28.602Z,4.45
2023-02-17T20:13:57.626Z,4.25
2023-02-17T20:16:24.542Z,3.80
2023-02-17T20:18:51.469Z,3.10
2023-02-17T20:21:21.815Z,3.00
2023-02-17T20:23:48.851Z,3.40
2023-02-17T20:26:18.309Z,4.68
2023-02-17T20:28:45.471Z,4.78
2023-02-17T20:31:12.715Z,4.63
2023-02-17T20:33:39.606Z,4.35
2023-02-17T20:36:08.257Z,4.45
2023-02-17T20:38:37.461Z,4.80
2023-02-17T20:43:31.797Z,3.58
2023-02-17T20:45:58.629Z,3.75
2023-02-17T20:48:27.622Z,4.80
2023-02-17T20:50:58.831Z,4.68
2023-02-17T20:53:26.629Z,5.32
2023-02-17T20:55:53.397Z,3.58
2023-02-17T20:58:20.295Z,3.92
2023-02-17T21:00:47.423Z,4.65
2023-02-17T21:03:14.604Z,4.07
2023-02-17T21:05:41.638Z,4.50
2023-02-17T21:08:08.180Z,4.88
2023-02-17T21:10:34.996Z,3.75
2023-02-17T21:13:01.697Z,5.03
2023-02-17T21:15:28.606Z,4.50
2023-02-17T21:17:55.130Z,5.43
2023-02-17T21:20:22.328Z,4.45
2023-02-17T21:22:49.779Z,5.03
2023-02-17T21:25:16.319Z,4.95
2023-02-17T21:27:42.861Z,4.57
2023-02-17T21:30:11.753Z,4.40
2023-02-17T21:32:38.780Z,5.53
2023-02-17T21:35:06.381Z,5.95
2023-02-17T21:37:34.408Z,4.80
2023-02-17T21:40:01.118Z,5.63
2023-02-17T21:42:46.277Z,4.55
2023-02-17T21:45:12.812Z,5.20
2023-02-17T21:47:39.337Z,5.07
2023-02-17T21:50:07.081Z,5.43
2023-02-17T21:52:33.652Z,4.22
2023-02-17T21:55:01.248Z,5.20
2023-02-17T21:57:27.992Z,4.22
2023-02-17T21:59:54.644Z,3.92
2023-02-17T22:02:21.240Z,5.03
2023-02-17T22:04:47.857Z,5.18
2023-02-17T22:07:14.391Z,3.83
2023-02-17T22:09:40.964Z,5.28
2023-02-17T22:12:07.696Z,4.60
2023-02-17T22:14:34.352Z,5.50
2023-02-17T22:17:01.120Z,5.72
2023-02-17T22:19:31.267Z,5.35
2023-02-17T22:21:58.341Z,5.05
2023-02-17T22:24:27.111Z,3.22
2023-02-17T22:26:57.127Z,4.43
2023-02-17T22:29:23.708Z,5.10
2023-02-17T22:31:50.570Z,5.53
2023-02-17T22:34:17.417Z,5.68
2023-02-17T22:36:44.051Z,5.90
2023-02-17T22:39:10.617Z,6.05
2023-02-17T22:41:38.783Z,5.63
2023-02-17T22:44:05.555Z,4.90
2023-02-17T22:46:32.325Z,5.60
2023-02-17T22:48:59.496Z,5.18
2023-02-17T22:51:38.020Z,5.75
2023-02-17T22:54:05.674Z,5.68
2023-02-17T22:56:32.505Z,5.85
2023-02-17T22:59:04.123Z,5.47
2023-02-17T23:01:33.073Z,5.65
2023-02-17T23:04:00.118Z,6.22
2023-02-17T23:06:32.668Z,6.07
2023-02-17T23:09:00.568Z,5.25
2023-02-17T23:11:53.793Z,5.45
2023-02-17T23:14:25.192Z,5.25
2023-02-17T23:16:53.417Z,5.80
2023-02-17T23:19:22.029Z,6.28
2023-02-17T23:21:51.777Z,4.57
2023-02-17T23:24:20.231Z,5.88
2023-02-17T23:26:47.638Z,5.05
2023-02-17T23:29:15.616Z,5.05
2023-02-17T23:31:42.688Z,6.40
2023-02-17T23:34:09.318Z,6.22
2023-02-17T23:36:39.581Z,5.88
2023-02-17T23:39:08.878Z,5.78
2023-02-17T23:41:37.052Z,5.32
2023-02-17T23:44:04.678Z,5.25
2023-02-17T23:46:31.186Z,4.45
2023-02-17T23:48:57.738Z,6.88
2023-02-17T23:51:24.250Z,6.93
2023-02-17T23:53:51.068Z,6.55
2023-02-17T23:56:30.682Z,6.18
2023-02-17T23:58:57.259Z,6.15
